Nearby METAR Reports

 

KMLI - Moline/Quad City, Illinois, USA
Distance from station: ENE 4mi, 7km
Updated: 12/12/2019 3:52am
Mist, Clear
Mist, Clear
 Wind from E
Wind: E 9 mph , 15 km/h
Temperature: 18°F , -8°C
Wind Chill: 7°F , -14°C
Dew Point: 14°F , -10°C
Humidity: 86%
Barometer: 30.28 inHg , 1025.4 hPa
Summary: Mist
Clouds: Clear
Visibility: 6 miles , 10 km
2019/12/12 09:52 KMLI 120952Z AUTO 10008KT 6SM BR CLR M08/M10 A3028 RMK AO2 SLP263 T10781100
KDVN - Davenport/Quad C, Iowa, USA
Distance from station: N 14mi, 22km
Updated: 12/12/2019 3:52am
Mist, Clear
Mist, Clear
 Wind from ESE
Wind: ESE 14 mph , 22 km/h
Temperature: 19°F , -7°C
Wind Chill: 5°F , -15°C
Dew Point: 16°F , -9°C
Humidity: 86%
Barometer: 30.28 inHg , 1025.4 hPa
Summary: Mist
Clouds: Clear
Visibility: 6 miles , 10 km
2019/12/12 09:52 KDVN 120952Z AUTO 12012KT 6SM BR CLR M07/M09 A3028 RMK AO2 SLP264 T10721094
 
KMUT - Muscatine, Iowa, USA
Distance from station: W 29mi, 47km
Updated: 12/12/2019 4:35am
Clear
Clear
 Wind from SE
Wind: SE 6 mph , 9 km/h
Temperature: 25°F , -4°C
Wind Chill: 18°F , -8°C
Dew Point: 23°F , -5°C
Humidity: 93%
Barometer: 30.25 inHg , 1024.4 hPa
Clouds: Clear
Visibility: 10 miles , 16 km
2019/12/12 10:35 KMUT 121035Z AUTO 14005KT 10SM CLR M04/M05 A3025 RMK AO2
KCWI - Clinton Muni, Iowa, USA
Distance from station: NNE 31mi, 50km
Updated: 12/12/2019 3:56am
Clear
Clear
 Wind from ESE
Wind: ESE 14 mph , 22 km/h
Temperature: 19°F , -7°C
Wind Chill: 5°F , -15°C
Dew Point: 18°F , -8°C
Humidity: 93%
Barometer: 30.29 inHg , 1025.7 hPa
Clouds: Clear
Visibility: 8 miles , 13 km
2019/12/12 09:56 KCWI 120956Z AUTO 12012KT 8SM CLR M07/M08 A3029 RMK AO2 SLP274 T10721083 FZRANO
 
KGBG - Galesburg, Illinois, USA
Distance from station: SSE 35mi, 56km
Updated: 12/12/2019 4:35am
Clear
Clear
 Wind from ESE
Wind: ESE 6 mph , 9 km/h
Temperature: 27°F , -3°C
Wind Chill: 20°F , -7°C
Dew Point: 23°F , -5°C
Humidity: 86%
Barometer: 30.28 inHg , 1025.4 hPa
Clouds: Clear
Visibility: 10 miles , 16 km
2019/12/12 10:35 KGBG 121035Z AUTO 11005KT 10SM CLR M03/M05 A3028 RMK AO2 T10351051
KSFY - Savanna/Tritown, Illinois, USA
Distance from station: NNE 50mi, 80km
Updated: 12/12/2019 4:35am
Clear
Clear
 Wind from calm
Wind: Calm
Temperature: 21°F , -6°C
Dew Point: 18°F , -8°C
Humidity: 86%
Barometer: 30.30 inHg , 1026.1 hPa
Clouds: Clear
Visibility: 7 miles , 11 km
2019/12/12 10:35 KSFY 121035Z AUTO 00000KT 7SM CLR M06/M08 A3030 RMK AO2